Time;durP1;ratioP1;P1;durP2;ratioP2;P2;SDS_P1;SDS_P2;PMS_P1;PMS_P2;Temp;Humidity;BMP_temperature;BMP_pressure;BME280_temperature;BME280_humidity;BME280_pressure;Samples;Min_cycle;Max_cycle;Signal;HPM_P1;HPM_P2
2022/10/06 00:01:26;;;;;;;12.30;1.38;;;13.30;99.90;;;;;;5072597;28;20063;-66
2022/10/06 00:03:52;;;;;;;5.10;1.33;;;13.20;99.90;;;;;;5071928;28;20044;-66
2022/10/06 00:06:18;;;;;;;7.88;1.42;;;13.20;99.90;;;;;;5072383;28;20368;-66
2022/10/06 00:08:45;;;;;;;10.48;1.60;;;13.10;99.90;;;;;;5073722;28;20055;-66
2022/10/06 00:11:13;;;;;;;11.95;1.60;;;13.20;99.90;;;;;;5073603;28;20071;-65
2022/10/06 00:13:39;;;;;;;8.38;1.88;;;13.20;99.90;;;;;;5073637;28;20035;-66
2022/10/06 00:16:13;;;;;;;10.38;1.40;;;13.10;99.90;;;;;;5073692;28;20036;-66
2022/10/06 00:18:38;;;;;;;13.38;1.95;;;13.10;99.90;;;;;;5073606;28;20383;-66
2022/10/06 00:21:04;;;;;;;14.65;1.83;;;13.10;99.90;;;;;;5072609;28;20040;-66
2022/10/06 00:23:30;;;;;;;10.50;1.52;;;13.10;99.90;;;;;;5073654;28;20117;-66
2022/10/06 00:25:57;;;;;;;11.02;1.20;;;13.00;99.90;;;;;;5073208;28;20051;-66
2022/10/06 00:28:22;;;;;;;14.35;1.63;;;13.00;99.90;;;;;;5073594;28;20131;-66
2022/10/06 00:30:49;;;;;;;9.48;2.00;;;13.00;99.90;;;;;;5072987;28;20527;-66
2022/10/06 00:33:16;;;;;;;8.77;1.83;;;13.10;99.90;;;;;;5071204;28;20051;-65
2022/10/06 00:35:42;;;;;;;16.70;2.58;;;13.00;99.90;;;;;;5071487;28;20078;-66
2022/10/06 00:38:11;;;;;;;9.68;1.70;;;13.00;99.90;;;;;;5073455;28;20094;-66
2022/10/06 00:40:44;;;;;;;10.55;1.60;;;13.00;99.90;;;;;;5072337;28;20051;-66
2022/10/06 00:43:38;;;;;;;10.43;1.75;;;13.10;99.90;;;;;;5073650;28;20040;-65
2022/10/06 00:46:10;;;;;;;9.38;1.92;;;13.00;99.90;;;;;;5073138;28;20048;-66
2022/10/06 00:48:37;;;;;;;12.30;1.90;;;13.00;99.90;;;;;;5073386;28;20105;-66
2022/10/06 00:51:04;;;;;;;15.18;2.15;;;13.00;99.90;;;;;;5073078;28;20471;-65
2022/10/06 00:53:30;;;;;;;9.10;2.00;;;13.00;99.90;;;;;;5073348;28;20076;-66
2022/10/06 00:55:56;;;;;;;13.98;2.40;;;13.00;99.90;;;;;;5073207;28;20486;-66
2022/10/06 00:58:22;;;;;;;11.98;1.70;;;13.00;99.90;;;;;;5072897;28;20033;-66
2022/10/06 01:00:54;;;;;;;11.43;2.08;;;12.90;99.90;;;;;;5072720;28;20430;-66
2022/10/06 01:03:45;;;;;;;11.27;2.47;;;12.90;99.90;;;;;;5071336;28;20045;-66
2022/10/06 01:06:11;;;;;;;12.70;2.28;;;12.90;99.90;;;;;;5070681;28;20029;-66
2022/10/06 01:08:37;;;;;;;12.80;2.25;;;12.80;99.90;;;;;;5073677;28;20479;-66
2022/10/06 01:11:02;;;;;;;8.07;2.28;;;12.80;99.90;;;;;;5076702;28;20040;-65
2022/10/06 01:13:29;;;;;;;12.07;1.98;;;12.80;99.90;;;;;;5076746;28;20036;-65
2022/10/06 01:16:21;;;;;;;13.95;1.45;;;12.80;99.90;;;;;;5076805;28;20075;-66
2022/10/06 01:18:47;;;;;;;7.85;1.95;;;12.80;99.90;;;;;;5076731;28;20036;-66
2022/10/06 01:21:30;;;;;;;12.38;1.88;;;12.80;99.90;;;;;;5076678;28;20037;-66
2022/10/06 01:23:56;;;;;;;9.68;2.15;;;12.80;99.90;;;;;;5076583;28;20040;-65
2022/10/06 01:26:23;;;;;;;9.45;1.65;;;12.80;99.90;;;;;;5076568;28;20044;-66
2022/10/06 01:28:50;;;;;;;14.20;1.98;;;12.90;99.90;;;;;;5075146;28;20040;-66
2022/10/06 01:31:16;;;;;;;10.98;1.60;;;12.90;99.90;;;;;;5076247;28;20047;-66
2022/10/06 01:33:42;;;;;;;15.98;2.55;;;12.80;99.90;;;;;;5076501;28;20380;-66
2022/10/06 01:36:07;;;;;;;10.60;1.75;;;12.80;99.90;;;;;;5076126;28;20032;-66
2022/10/06 01:38:33;;;;;;;13.75;2.17;;;12.80;99.90;;;;;;5076389;28;20036;-66
2022/10/06 01:40:59;;;;;;;11.93;2.47;;;12.80;99.90;;;;;;5076359;28;20036;-66
2022/10/06 01:43:25;;;;;;;13.48;2.10;;;12.80;99.90;;;;;;5076337;28;20421;-66
2022/10/06 01:45:55;;;;;;;11.82;1.85;;;12.70;99.90;;;;;;5076254;28;20043;-66
2022/10/06 01:48:22;;;;;;;10.55;2.10;;;12.70;99.90;;;;;;5075991;28;20094;-66
2022/10/06 01:50:47;;;;;;;9.95;2.00;;;12.70;99.90;;;;;;5076033;28;20051;-67
2022/10/06 01:53:13;;;;;;;12.32;2.05;;;12.70;99.90;;;;;;5076093;28;20036;-66
2022/10/06 01:55:39;;;;;;;13.57;3.00;;;12.70;99.90;;;;;;5075854;28;20159;-66
2022/10/06 01:58:05;;;;;;;10.60;2.22;;;12.70;99.90;;;;;;5075909;28;20533;-67
2022/10/06 02:00:31;;;;;;;10.75;1.60;;;12.70;99.90;;;;;;5075613;28;20092;-66
2022/10/06 02:02:56;;;;;;;12.00;1.88;;;12.70;99.90;;;;;;5075918;28;20044;-66
2022/10/06 02:05:22;;;;;;;10.95;1.70;;;12.60;99.90;;;;;;5075808;28;20070;-67
2022/10/06 02:07:48;;;;;;;33.60;3.47;;;12.60;99.90;;;;;;5075734;28;20049;-66
2022/10/06 02:10:14;;;;;;;10.18;2.13;;;12.60;99.90;;;;;;5075710;28;20052;-66
2022/10/06 02:12:39;;;;;;;16.48;2.33;;;12.60;99.90;;;;;;5075698;28;20361;-67
2022/10/06 02:15:06;;;;;;;12.65;1.58;;;12.60;99.90;;;;;;5075732;28;20390;-66
2022/10/06 02:17:31;;;;;;;10.43;2.03;;;12.50;99.90;;;;;;5075635;28;20032;-67
2022/10/06 02:19:57;;;;;;;14.00;2.40;;;12.60;99.90;;;;;;5075057;28;20467;-67
2022/10/06 02:22:23;;;;;;;10.75;2.03;;;12.50;99.90;;;;;;5075282;28;20036;-67
2022/10/06 02:24:48;;;;;;;10.63;2.33;;;12.60;99.90;;;;;;5075785;28;20521;-67
2022/10/06 02:27:14;;;;;;;8.93;2.33;;;12.50;99.90;;;;;;5074077;28;20439;-67
2022/10/06 02:29:39;;;;;;;12.60;2.53;;;12.50;99.90;;;;;;5075286;28;20033;-67
2022/10/06 02:32:05;;;;;;;16.73;2.40;;;12.50;99.90;;;;;;5075610;28;20462;-66
2022/10/06 02:34:31;;;;;;;9.70;1.88;;;12.40;99.90;;;;;;5075211;28;20036;-66
2022/10/06 02:36:57;;;;;;;14.88;2.10;;;12.40;99.90;;;;;;5074886;28;20471;-65
2022/10/06 02:39:23;;;;;;;11.88;2.42;;;12.50;99.90;;;;;;5073775;28;20037;-66
2022/10/06 02:41:48;;;;;;;15.13;2.15;;;12.50;99.90;;;;;;5075120;28;20174;-66
2022/10/06 02:44:14;;;;;;;12.40;2.10;;;12.40;99.90;;;;;;5075135;28;20437;-66
2022/10/06 02:46:40;;;;;;;8.52;1.65;;;12.50;99.90;;;;;;5074911;28;20055;-67
2022/10/06 02:49:06;;;;;;;8.27;2.03;;;12.60;99.90;;;;;;5074929;28;20052;-67
2022/10/06 02:51:32;;;;;;;13.77;2.45;;;12.50;99.90;;;;;;5074957;28;20128;-67
2022/10/06 02:53:58;;;;;;;9.18;2.03;;;12.50;99.90;;;;;;5075239;28;20044;-66
2022/10/06 02:56:24;;;;;;;12.57;2.53;;;12.50;99.90;;;;;;5074849;28;20047;-67
2022/10/06 02:58:52;;;;;;;14.68;2.20;;;12.60;99.90;;;;;;5074587;28;20045;-67
2022/10/06 03:01:24;;;;;;;9.52;2.17;;;12.70;99.90;;;;;;5074674;28;20512;-66
2022/10/06 03:03:50;;;;;;;10.77;1.77;;;12.70;99.90;;;;;;5074617;28;20115;-66
2022/10/06 03:06:23;;;;;;;15.95;3.50;;;12.70;99.90;;;;;;5074655;28;20112;-66
2022/10/06 03:08:50;;;;;;;13.20;1.75;;;12.60;99.90;;;;;;5074648;28;20372;-66
2022/10/06 03:11:20;;;;;;;6.10;1.30;;;12.60;99.90;;;;;;5074560;28;20096;-66
2022/10/06 03:13:48;;;;;;;9.52;1.70;;;12.60;99.90;;;;;;5074207;28;20036;-66
2022/10/06 03:16:37;;;;;;;14.20;2.78;;;12.60;99.90;;;;;;5074500;28;20036;-66
2022/10/06 03:19:04;;;;;;;11.75;2.65;;;12.60;99.90;;;;;;5074473;28;20036;-66
2022/10/06 03:21:33;;;;;;;11.30;2.17;;;12.40;99.90;;;;;;5074709;28;20057;-65
2022/10/06 03:23:59;;;;;;;10.45;3.17;;;12.40;99.90;;;;;;5074337;28;20044;-66
2022/10/06 03:26:31;;;;;;;12.20;1.90;;;12.40;99.90;;;;;;5074100;28;20408;-66
2022/10/06 03:28:57;;;;;;;6.93;1.77;;;12.30;99.90;;;;;;5074310;28;20074;-66
2022/10/06 03:31:24;;;;;;;13.57;2.25;;;12.30;99.90;;;;;;5073869;28;20467;-66
2022/10/06 03:33:51;;;;;;;19.60;2.22;;;12.20;99.90;;;;;;5073429;28;20055;-66
2022/10/06 03:36:19;;;;;;;9.07;2.35;;;12.20;99.90;;;;;;5074143;28;20047;-65
2022/10/06 03:38:45;;;;;;;9.00;2.25;;;12.10;99.90;;;;;;5074000;28;20043;-66
2022/10/06 03:41:16;;;;;;;11.82;2.20;;;12.10;99.90;;;;;;5074107;28;20115;-66
2022/10/06 03:43:44;;;;;;;7.75;1.80;;;12.00;99.90;;;;;;5074085;28;20393;-66
2022/10/06 03:46:13;;;;;;;15.73;1.92;;;12.00;99.90;;;;;;5073999;28;20043;-68
2022/10/06 03:48:39;;;;;;;9.25;1.88;;;11.90;99.90;;;;;;5073905;28;20052;-67
2022/10/06 03:51:30;;;;;;;9.90;1.63;;;11.80;99.90;;;;;;5073882;28;20041;-66
2022/10/06 03:53:56;;;;;;;12.23;1.83;;;11.70;99.90;;;;;;5031864;28;20489;-66
2022/10/06 03:56:33;;;;;;;9.50;2.22;;;11.70;99.90;;;;;;5015333;28;20056;-66
2022/10/06 03:59:01;;;;;;;10.27;1.88;;;11.70;99.90;;;;;;5031504;28;20045;-66
2022/10/06 04:01:32;;;;;;;9.73;2.35;;;11.70;99.90;;;;;;5031752;28;20042;-66
2022/10/06 04:03:59;;;;;;;14.15;2.35;;;11.70;99.90;;;;;;5015147;28;20440;-67
2022/10/06 04:06:27;;;;;;;12.73;2.15;;;11.80;99.90;;;;;;5032161;28;20049;-66
2022/10/06 04:08:53;;;;;;;6.78;1.35;;;11.70;99.90;;;;;;5031601;28;20124;-66
2022/10/06 04:11:24;;;;;;;9.27;1.65;;;11.70;99.90;;;;;;5031429;28;20053;-66
2022/10/06 04:13:56;;;;;;;10.82;2.53;;;11.70;99.90;;;;;;5031636;28;20038;-66
2022/10/06 04:16:24;;;;;;;10.07;1.90;;;11.70;99.90;;;;;;5031469;28;20116;-67
2022/10/06 04:18:52;;;;;;;14.18;2.20;;;11.70;99.90;;;;;;5031524;28;20046;-66
2022/10/06 04:21:19;;;;;;;11.60;2.27;;;11.70;99.90;;;;;;5031481;28;20045;-67
2022/10/06 04:23:45;;;;;;;13.10;1.98;;;11.60;99.90;;;;;;5014998;28;20045;-66
2022/10/06 04:26:13;;;;;;;6.88;2.30;;;11.60;99.90;;;;;;5031475;28;20064;-67
2022/10/06 04:28:40;;;;;;;11.98;1.90;;;11.50;99.90;;;;;;5031525;28;20045;-67
2022/10/06 04:31:21;;;;;;;13.90;2.15;;;11.50;99.90;;;;;;5055950;28;20059;-67
2022/10/06 04:33:51;;;;;;;11.60;2.15;;;11.40;99.90;;;;;;5073552;28;20124;-67
2022/10/06 04:36:22;;;;;;;11.10;2.63;;;11.40;99.90;;;;;;5073600;28;20036;-67
2022/10/06 04:38:57;;;;;;;14.52;2.35;;;11.40;99.90;;;;;;5073730;28;20044;-67
2022/10/06 04:41:25;;;;;;;8.48;2.13;;;11.30;99.90;;;;;;5073111;28;20043;-66
2022/10/06 04:43:52;;;;;;;10.52;1.88;;;11.40;99.90;;;;;;5073416;28;20045;-67
2022/10/06 04:46:19;;;;;;;12.70;2.08;;;11.30;99.90;;;;;;5077420;28;20037;-66
2022/10/06 04:48:46;;;;;;;8.95;2.08;;;11.30;99.90;;;;;;5077319;28;20149;-67
2022/10/06 04:51:14;;;;;;;14.23;2.03;;;11.30;99.90;;;;;;5075890;28;20062;-67
2022/10/06 04:53:43;;;;;;;12.68;2.72;;;11.30;99.90;;;;;;5077141;28;20039;-67
2022/10/06 04:56:13;;;;;;;11.98;1.88;;;11.30;99.90;;;;;;5077075;28;20433;-67
2022/10/06 04:58:42;;;;;;;9.48;1.88;;;11.20;99.90;;;;;;5076897;28;20049;-67
2022/10/06 05:01:35;;;;;;;12.95;2.03;;;11.20;99.90;;;;;;5076848;28;20139;-67
2022/10/06 05:04:02;;;;;;;13.55;2.70;;;11.10;99.90;;;;;;5073515;28;20081;-66
2022/10/06 05:06:36;;;;;;;11.45;1.60;;;11.10;99.90;;;;;;5074197;28;20120;-66
2022/10/06 05:09:08;;;;;;;7.30;1.70;;;11.10;99.90;;;;;;5076859;28;20115;-66
2022/10/06 05:11:33;;;;;;;11.75;2.60;;;11.20;99.90;;;;;;5076814;28;20039;-66
2022/10/06 05:13:59;;;;;;;9.55;2.08;;;11.20;99.90;;;;;;5076800;28;20111;-55
2022/10/06 05:16:27;;;;;;;12.00;3.53;;;11.10;99.90;;;;;;5076839;28;20064;-55
2022/10/06 05:18:53;;;;;;;11.38;2.38;;;11.10;99.90;;;;;;5076609;28;20506;-55
2022/10/06 05:21:31;;;;;;;13.82;1.55;;;11.10;99.90;;;;;;5059226;28;20044;-54
2022/10/06 05:23:57;;;;;;;12.43;2.95;;;11.10;99.90;;;;;;5076678;28;20037;-56
2022/10/06 05:26:25;;;;;;;11.20;2.10;;;11.10;99.90;;;;;;5076346;28;20036;-55
2022/10/06 05:28:51;;;;;;;13.63;2.07;;;11.10;99.90;;;;;;5076592;28;20047;-56
2022/10/06 05:31:21;;;;;;;10.13;2.50;;;11.10;99.90;;;;;;5076193;28;20307;-56
2022/10/06 05:33:47;;;;;;;12.18;2.25;;;11.10;99.90;;;;;;5073356;28;20048;-55
2022/10/06 05:36:19;;;;;;;10.73;1.98;;;11.10;99.90;;;;;;5074938;28;20041;-56
2022/10/06 05:38:44;;;;;;;14.85;2.10;;;11.20;99.90;;;;;;5076265;28;20037;-55
2022/10/06 05:41:14;;;;;;;12.85;1.83;;;11.20;99.90;;;;;;5076494;28;20043;-56
2022/10/06 05:43:41;;;;;;;8.10;2.15;;;11.20;99.90;;;;;;5076011;28;20410;-56
2022/10/06 05:46:18;;;;;;;8.95;1.85;;;11.20;99.90;;;;;;5075021;28;20059;-66
2022/10/06 05:48:48;;;;;;;10.30;1.90;;;11.20;99.90;;;;;;5076581;28;20044;-67
2022/10/06 05:51:14;;;;;;;16.35;2.80;;;11.20;99.90;;;;;;5075275;28;20410;-67
2022/10/06 05:53:40;;;;;;;9.77;2.33;;;11.20;99.90;;;;;;5074707;28;20040;-67
2022/10/06 05:56:09;;;;;;;13.77;2.15;;;11.20;99.90;;;;;;5074842;28;20094;-66
2022/10/06 05:58:36;;;;;;;8.15;2.03;;;11.20;99.90;;;;;;5075848;28;20064;-66
2022/10/06 06:01:21;;;;;;;12.98;2.28;;;11.20;99.90;;;;;;5075667;28;20040;-66
2022/10/06 06:03:58;;;;;;;13.90;2.20;;;11.30;99.90;;;;;;5073696;28;20482;-66
2022/10/06 06:06:30;;;;;;;17.23;2.70;;;11.20;99.90;;;;;;5073615;28;20037;-66
2022/10/06 06:09:08;;;;;;;9.70;1.77;;;11.20;99.90;;;;;;5075642;28;20044;-67
2022/10/06 06:11:36;;;;;;;10.85;2.20;;;11.20;99.90;;;;;;5075743;28;20047;-66
2022/10/06 06:14:07;;;;;;;13.02;2.53;;;11.20;99.90;;;;;;5075794;28;20043;-66
2022/10/06 06:16:34;;;;;;;11.48;2.72;;;11.30;99.90;;;;;;5075317;28;20086;-66
2022/10/06 06:19:00;;;;;;;15.15;3.25;;;11.30;99.90;;;;;;5075646;28;20040;-66
2022/10/06 06:21:27;;;;;;;16.35;2.35;;;11.50;99.90;;;;;;5074512;28;20116;-67
2022/10/06 06:23:53;;;;;;;8.98;1.65;;;11.30;99.90;;;;;;5074088;28;20547;-65
2022/10/06 06:26:24;;;;;;;10.63;1.67;;;11.40;99.90;;;;;;5074166;28;20072;-66
2022/10/06 06:28:50;;;;;;;7.80;1.90;;;11.40;99.90;;;;;;5075462;28;20364;-66
2022/10/06 06:31:21;;;;;;;14.68;2.30;;;11.40;99.90;;;;;;5074925;28;20491;-66
2022/10/06 06:33:50;;;;;;;13.35;2.00;;;11.60;99.90;;;;;;5073463;28;20035;-66
2022/10/06 06:36:16;;;;;;;12.65;2.30;;;11.60;99.90;;;;;;5073836;28;20359;-66
2022/10/06 06:38:42;;;;;;;11.25;2.53;;;11.60;99.90;;;;;;5075099;28;20056;-66
2022/10/06 06:41:16;;;;;;;16.25;3.10;;;11.70;99.90;;;;;;5075111;28;20055;-66
2022/10/06 06:43:42;;;;;;;12.65;2.53;;;11.70;99.90;;;;;;5074690;28;20094;-65
2022/10/06 06:46:08;;;;;;;17.55;3.47;;;11.70;99.90;;;;;;5073694;28;20368;-66
2022/10/06 06:48:37;;;;;;;10.80;1.92;;;11.80;99.90;;;;;;5074909;28;20050;-65
2022/10/06 06:51:04;;;;;;;11.45;1.88;;;11.90;99.90;;;;;;5075007;28;20043;-66
2022/10/06 06:53:30;;;;;;;12.15;2.05;;;11.90;99.90;;;;;;5074838;28;20433;-65
2022/10/06 06:55:55;;;;;;;13.23;2.80;;;11.90;99.90;;;;;;5074687;28;20379;-66
2022/10/06 06:58:21;;;;;;;12.82;2.15;;;12.00;99.90;;;;;;5074645;28;20032;-65
2022/10/06 07:00:47;;;;;;;13.82;2.65;;;12.10;99.90;;;;;;5074801;28;20044;-66
2022/10/06 07:03:18;;;;;;;16.52;3.58;;;12.20;99.90;;;;;;5074237;28;20036;-66
2022/10/06 07:05:47;;;;;;;12.23;2.97;;;12.20;99.90;;;;;;5075110;28;20040;-67
2022/10/06 07:08:14;;;;;;;17.48;2.15;;;12.30;99.90;;;;;;5074376;28;20032;-66
2022/10/06 07:10:43;;;;;;;17.63;3.08;;;12.40;99.90;;;;;;5074529;28;20040;-67
2022/10/06 07:13:13;;;;;;;11.07;1.95;;;12.40;99.90;;;;;;5074381;28;20041;-66
2022/10/06 07:26:39;;;;;;;15.40;2.80;;;13.50;99.90;;;;;;5072862;28;20044;-67
2022/10/06 07:29:05;;;;;;;19.50;2.83;;;13.70;99.90;;;;;;5074246;28;20045;-67
2022/10/06 07:31:32;;;;;;;14.10;2.13;;;14.00;99.90;;;;;;5073882;28;20098;-66
2022/10/06 07:34:02;;;;;;;12.23;2.80;;;14.20;99.90;;;;;;5074211;28;20040;-64
2022/10/06 07:36:29;;;;;;;11.05;1.73;;;14.50;99.90;;;;;;5072299;28;20098;-64
2022/10/06 07:38:55;;;;;;;10.30;1.90;;;14.70;99.90;;;;;;5074191;28;20055;-66
2022/10/06 07:41:21;;;;;;;16.38;2.42;;;14.90;99.90;;;;;;5074076;28;20368;-65
2022/10/06 07:43:47;;;;;;;10.20;2.20;;;14.90;99.90;;;;;;5073931;28;20036;-65
2022/10/06 07:46:13;;;;;;;11.75;2.53;;;15.20;99.90;;;;;;5072704;28;20064;-65
2022/10/06 07:48:43;;;;;;;13.20;2.45;;;15.40;99.90;;;;;;5074025;28;20036;-65
2022/10/06 07:51:14;;;;;;;9.68;2.17;;;15.40;99.90;;;;;;5073840;28;20051;-64
2022/10/06 07:53:41;;;;;;;13.18;2.22;;;15.60;99.90;;;;;;5073808;28;20032;-63
2022/10/06 07:56:07;;;;;;;13.95;2.22;;;15.80;99.90;;;;;;5072769;28;20048;-65
2022/10/06 07:58:36;;;;;;;9.05;2.22;;;15.90;99.90;;;;;;5073678;28;20397;-64
2022/10/06 08:01:06;;;;;;;18.25;3.92;;;16.10;99.90;;;;;;5073567;28;20074;-65
2022/10/06 08:03:33;;;;;;;12.10;2.47;;;16.20;99.90;;;;;;5072894;28;20068;-65
2022/10/06 08:06:00;;;;;;;14.50;2.53;;;16.40;99.90;;;;;;5071956;28;20043;-65
2022/10/06 08:08:28;;;;;;;10.82;2.92;;;16.60;99.90;;;;;;5073501;28;20190;-65
2022/10/06 08:10:57;;;;;;;9.60;2.80;;;16.60;99.90;;;;;;5073480;28;20078;-65
2022/10/06 08:13:23;;;;;;;14.30;1.73;;;16.80;99.90;;;;;;5073401;28;20040;-64
2022/10/06 08:15:50;;;;;;;15.93;2.13;;;16.70;99.90;;;;;;5072437;28;20062;-63
2022/10/06 08:18:17;;;;;;;12.52;2.42;;;17.00;99.90;;;;;;5073788;28;20044;-65
2022/10/06 08:20:44;;;;;;;11.70;2.53;;;17.10;99.90;;;;;;5080307;28;20040;-65
2022/10/06 08:23:10;;;;;;;12.98;2.30;;;17.10;99.90;;;;;;5080161;28;20521;-65
2022/10/06 08:25:42;;;;;;;9.48;1.88;;;17.30;99.90;;;;;;5080316;28;20033;-64
2022/10/06 08:28:11;;;;;;;14.20;2.78;;;17.30;99.90;;;;;;5080340;28;20055;-65
2022/10/06 08:30:38;;;;;;;14.43;2.15;;;17.40;99.90;;;;;;5080114;28;20041;-64
2022/10/06 08:33:04;;;;;;;8.38;2.45;;;17.60;99.90;;;;;;5078958;28;20036;-65
2022/10/06 08:35:31;;;;;;;13.68;2.40;;;17.70;99.90;;;;;;5078762;28;20648;-66
2022/10/06 08:37:57;;;;;;;12.90;1.90;;;17.60;99.90;;;;;;5077853;28;20383;-65
2022/10/06 08:40:24;;;;;;;7.57;2.17;;;17.90;99.90;;;;;;5077123;28;20048;-65
2022/10/06 08:42:57;;;;;;;8.32;2.20;;;17.80;99.90;;;;;;5080104;28;20097;-64
2022/10/06 08:45:33;;;;;;;8.68;1.83;;;17.80;99.90;;;;;;5079838;28;20048;-64
2022/10/06 08:48:04;;;;;;;17.45;2.65;;;17.90;99.90;;;;;;5079598;28;20043;-65
2022/10/06 08:50:37;;;;;;;11.45;1.77;;;17.90;99.90;;;;;;5079868;28;20048;-65
2022/10/06 08:53:37;;;;;;;11.32;2.35;;;17.90;99.90;;;;;;5080092;28;20044;-65
2022/10/06 08:56:16;;;;;;;15.90;2.92;;;17.70;99.90;;;;;;5080172;28;20094;-65
2022/10/06 08:58:56;;;;;;;11.20;2.35;;;17.90;99.90;;;;;;5079638;28;20052;-66
2022/10/06 09:01:25;;;;;;;17.88;2.83;;;17.90;99.90;;;;;;5079502;28;20063;-65
2022/10/06 09:03:52;;;;;;;;;;;17.80;99.90;;;;;;5080158;28;20111;-66
2022/10/06 09:06:33;;;;;;;8.52;2.17;;;17.60;99.90;;;;;;5079884;28;19967;-65
2022/10/06 09:09:25;;;;;;;13.43;3.10;;;17.50;99.90;;;;;;5078041;28;20044;-67
2022/10/06 09:12:01;;;;;;;14.25;3.90;;;17.30;99.90;;;;;;5079341;28;20109;-67
2022/10/06 09:14:36;;;;;;;17.02;1.90;;;17.20;99.90;;;;;;5079729;28;20068;-66
2022/10/06 09:17:09;;;;;;;11.15;2.10;;;17.00;99.90;;;;;;5079794;28;20040;-67
2022/10/06 09:19:46;;;;;;;13.68;2.83;;;17.00;99.90;;;;;;5079805;28;20040;-65
2022/10/06 09:22:21;;;;;;;12.30;2.15;;;17.00;99.90;;;;;;5079801;28;20036;-66
2022/10/06 09:24:50;;;;;;;7.57;1.85;;;17.00;99.90;;;;;;5079664;28;20399;-66
2022/10/06 09:27:29;;;;;;;10.07;1.70;;;16.90;99.90;;;;;;5079755;28;20071;-66
2022/10/06 09:29:54;;;;;;;8.53;1.60;;;16.80;99.90;;;;;;5077178;28;20044;-66
2022/10/06 09:32:22;;;;;;;12.88;2.17;;;16.70;99.90;;;;;;5075520;28;20597;-67
2022/10/06 09:34:52;;;;;;;12.88;1.75;;;16.70;99.90;;;;;;5076374;28;20490;-67
2022/10/06 09:37:18;;;;;;;9.15;2.30;;;16.70;99.90;;;;;;5076365;28;20040;-66
2022/10/06 09:39:47;;;;;;;14.77;2.13;;;16.70;99.90;;;;;;5076788;28;20068;-67
2022/10/06 09:42:27;;;;;;;;;;;16.70;99.90;;;;;;5075039;28;20052;-67
2022/10/06 09:44:59;;;;;;;8.07;1.73;;;16.60;99.90;;;;;;5076112;28;19939;-67
2022/10/06 09:47:27;;;;;;;8.45;1.40;;;16.50;99.90;;;;;;5076247;28;20036;-67
2022/10/06 09:50:11;;;;;;;8.27;1.50;;;16.60;99.90;;;;;;5075065;28;20049;-68
2022/10/06 09:52:37;;;;;;;15.50;2.55;;;16.60;99.90;;;;;;5076121;28;20087;-67
2022/10/06 09:55:10;;;;;;;11.18;1.75;;;16.60;99.90;;;;;;5076141;28;20120;-68
2022/10/06 09:57:36;;;;;;;12.48;2.45;;;16.60;99.90;;;;;;5075986;28;20036;-67
2022/10/06 10:00:02;;;;;;;11.80;2.42;;;16.50;99.90;;;;;;5075230;28;20067;-67
2022/10/06 10:02:35;;;;;;;11.02;2.00;;;16.70;99.90;;;;;;5075115;28;20051;-69
2022/10/06 10:05:05;;;;;;;10.73;2.30;;;16.70;99.90;;;;;;5074091;28;20497;-68
2022/10/06 10:07:33;;;;;;;9.95;1.85;;;16.60;99.90;;;;;;5073775;28;20036;-67
2022/10/06 10:10:20;;;;;;;12.43;1.75;;;16.70;99.90;;;;;;5075770;28;20033;-67
2022/10/06 10:12:55;;;;;;;9.57;2.00;;;16.80;99.90;;;;;;5075787;28;20068;-68
2022/10/06 10:15:25;;;;;;;11.07;1.85;;;16.70;99.90;;;;;;5075794;28;20040;-68
2022/10/06 10:18:01;;;;;;;7.78;1.60;;;16.70;99.90;;;;;;5075714;28;20037;-68
2022/10/06 10:20:33;;;;;;;8.10;1.73;;;16.70;99.90;;;;;;5075656;28;20360;-66
2022/10/06 10:23:05;;;;;;;6.88;1.70;;;16.60;99.90;;;;;;5075250;28;20402;-66
2022/10/06 10:25:54;;;;;;;8.18;1.50;;;16.60;99.90;;;;;;5075615;28;20442;-66
2022/10/06 10:28:26;;;;;;;17.45;3.53;;;16.50;99.90;;;;;;5075485;28;20079;-67
2022/10/06 10:31:32;;;;;;;11.15;1.88;;;16.50;99.90;;;;;;5074191;28;20039;-66
2022/10/06 10:33:58;;;;;;;8.90;1.63;;;16.50;99.90;;;;;;5074518;28;20032;-67
2022/10/06 10:36:34;;;;;;;8.30;1.40;;;16.60;99.90;;;;;;5074201;28;20368;-67
2022/10/06 10:39:00;;;;;;;15.32;2.65;;;16.70;99.90;;;;;;5074955;28;20470;-68
2022/10/06 10:41:34;;;;;;;10.00;1.48;;;16.60;99.90;;;;;;5074690;28;20044;-66
2022/10/06 10:44:13;;;;;;;7.68;1.60;;;16.70;99.90;;;;;;5073573;28;20079;-67
2022/10/06 10:46:46;;;;;;;8.02;1.60;;;16.60;99.90;;;;;;5075083;28;20043;-67
2022/10/06 10:49:32;;;;;;;7.45;1.75;;;16.60;99.90;;;;;;5074632;28;20037;-66
2022/10/06 10:52:19;;;;;;;7.78;1.80;;;16.60;99.90;;;;;;5074871;28;20503;-67
2022/10/06 10:55:17;;;;;;;13.65;2.35;;;16.60;99.90;;;;;;5074273;28;20040;-66
2022/10/06 10:57:43;;;;;;;9.38;1.98;;;16.70;99.90;;;;;;5052294;28;20055;-67
2022/10/06 11:00:19;;;;;;;4.03;1.02;;;16.70;99.90;;;;;;5052406;28;20057;-67
2022/10/06 11:02:45;;;;;;;8.48;1.77;;;16.80;99.90;;;;;;5051851;28;20132;-67
2022/10/06 11:05:13;;;;;;;9.13;1.80;;;17.00;99.90;;;;;;5033741;28;20052;-67
2022/10/06 11:08:06;;;;;;;14.95;1.80;;;17.10;99.90;;;;;;5050771;28;20044;-66
2022/10/06 11:10:56;;;;;;;6.95;1.40;;;17.10;99.90;;;;;;5051522;28;20044;-66
2022/10/06 11:13:39;;;;;;;9.43;1.45;;;17.20;99.90;;;;;;5052580;28;20048;-67
2022/10/06 11:16:15;;;;;;;8.60;1.60;;;17.30;99.90;;;;;;5034963;28;20531;-67
2022/10/06 11:18:48;;;;;;;8.63;2.40;;;17.50;99.90;;;;;;5052114;28;20124;-67
2022/10/06 11:21:26;;;;;;;8.18;2.08;;;17.60;99.90;;;;;;5052275;28;20044;-66
2022/10/06 11:24:03;;;;;;;9.77;2.42;;;17.70;99.90;;;;;;5052154;28;20071;-66
2022/10/06 11:26:52;;;;;;;6.38;1.33;;;17.70;99.90;;;;;;5035398;28;20037;-66
2022/10/06 11:29:34;;;;;;;5.78;1.10;;;17.90;99.90;;;;;;5052006;28;20041;-68
2022/10/06 11:32:05;;;;;;;9.15;1.63;;;18.00;99.90;;;;;;5034961;28;20476;-66
2022/10/06 11:34:31;;;;;;;6.40;1.70;;;18.10;99.90;;;;;;5067283;28;20048;-66
2022/10/06 11:37:34;;;;;;;7.47;1.65;;;18.30;99.90;;;;;;5074601;28;20051;-68
2022/10/06 11:40:19;;;;;;;6.82;1.27;;;18.40;99.90;;;;;;5035445;28;20045;-67
2022/10/06 11:43:11;;;;;;;6.43;1.83;;;18.40;99.90;;;;;;5051956;28;20144;-67
2022/10/06 11:45:45;;;;;;;7.90;1.13;;;18.40;99.90;;;;;;5035147;28;20041;-68
2022/10/06 11:48:25;;;;;;;7.03;1.50;;;18.60;99.90;;;;;;5051908;28;20082;-67
2022/10/06 11:50:54;;;;;;;9.20;1.50;;;18.70;99.90;;;;;;5051820;28;20045;-68
2022/10/06 11:53:33;;;;;;;;;;;18.70;99.90;;;;;;5051749;28;20079;-68
2022/10/06 11:56:16;;;;;;;8.48;1.30;;;18.80;99.90;;;;;;5051656;28;19917;-68
2022/10/06 11:58:51;;;;;;;7.55;1.23;;;18.90;99.90;;;;;;5051527;28;20060;-68
2022/10/06 12:01:38;;;;;;;6.10;1.05;;;18.90;99.90;;;;;;5051723;28;20049;-67
2022/10/06 12:04:12;;;;;;;5.13;1.25;;;18.80;99.90;;;;;;5051683;28;20102;-66
2022/10/06 12:06:46;;;;;;;6.20;1.27;;;18.80;99.90;;;;;;5051922;28;20044;-67
2022/10/06 12:09:29;;;;;;;6.28;1.15;;;18.90;99.90;;;;;;5051689;28;20553;-66
2022/10/06 12:12:13;;;;;;;5.68;1.52;;;18.60;99.90;;;;;;5051365;28;20041;-66
2022/10/06 12:14:54;;;;;;;10.50;1.73;;;18.60;99.90;;;;;;5051514;28;20037;-67
2022/10/06 12:17:42;;;;;;;6.35;1.58;;;18.70;99.90;;;;;;5072427;28;20106;-66
2022/10/06 12:20:17;;;;;;;10.43;1.38;;;18.90;99.90;;;;;;5073666;28;20032;-67
2022/10/06 12:22:59;;;;;;;5.85;1.33;;;18.90;99.90;;;;;;5073568;28;20502;-66
2022/10/06 12:25:49;;;;;;;6.05;1.52;;;19.00;99.90;;;;;;5073493;28;20072;-67
2022/10/06 12:28:37;;;;;;;9.15;1.00;;;19.10;99.90;;;;;;5072036;28;20040;-67
2022/10/06 12:31:28;;;;;;;4.28;1.17;;;19.10;99.90;;;;;;5073277;28;20468;-66
2022/10/06 12:33:53;;;;;;;;;;;19.10;99.90;;;;;;5074039;28;20462;-67
2022/10/06 12:36:27;;;;;;;7.75;1.38;;;19.20;99.90;;;;;;5073442;28;19971;-67
2022/10/06 12:39:23;;;;;;;6.43;1.67;;;19.10;99.90;;;;;;5073235;28;20123;-67
2022/10/06 12:42:06;;;;;;;11.25;1.92;;;19.20;99.90;;;;;;5073258;28;20552;-66
2022/10/06 12:44:58;;;;;;;7.90;1.30;;;19.00;99.90;;;;;;5073435;28;20118;-66
2022/10/06 12:47:33;;;;;;;6.75;1.08;;;18.80;99.90;;;;;;5071909;28;20080;-68
2022/10/06 12:50:05;;;;;;;9.80;1.90;;;18.60;99.90;;;;;;5073152;28;20033;-68
2022/10/06 12:53:04;;;;;;;12.15;1.73;;;18.70;99.90;;;;;;5072115;28;20048;-68
2022/10/06 12:55:51;;;;;;;7.63;1.35;;;18.60;99.90;;;;;;5073373;28;20040;-68
2022/10/06 12:58:19;;;;;;;7.38;1.38;;;18.30;99.90;;;;;;5071970;28;20043;-68
2022/10/06 13:00:45;;;;;;;7.28;1.30;;;18.10;99.90;;;;;;5073287;28;20059;-68
2022/10/06 13:03:17;;;;;;;11.85;1.60;;;18.10;99.90;;;;;;5072336;28;20040;-67
2022/10/06 13:05:59;;;;;;;7.60;2.22;;;18.00;99.90;;;;;;5074280;28;20032;-68
2022/10/06 13:08:28;;;;;;;8.60;1.38;;;18.00;99.90;;;;;;5076426;28;20068;-68
2022/10/06 13:11:20;;;;;;;7.18;1.23;;;18.10;99.90;;;;;;5076649;28;20414;-68
2022/10/06 13:13:58;;;;;;;13.05;3.15;;;18.10;99.90;;;;;;5076876;28;20493;-68